createdAt,value
2022-12-13T01:15:26.201Z,6.53
2022-12-13T01:18:34.379Z,6.80
2022-12-13T01:21:39.718Z,7.15
2022-12-13T01:24:46.050Z,7.03
2022-12-13T01:27:53.988Z,7.03
2022-12-13T01:30:58.814Z,7.78
2022-12-13T01:34:04.923Z,8.13
2022-12-13T01:37:10.360Z,8.83
2022-12-13T01:40:17.059Z,9.40
2022-12-13T01:43:25.471Z,9.55
2022-12-13T01:46:31.464Z,10.00
2022-12-13T01:49:36.094Z,9.70
2022-12-13T01:52:44.948Z,8.53
2022-12-13T01:55:52.573Z,8.45
2022-12-13T01:58:59.072Z,7.90
2022-12-13T02:02:04.358Z,8.30
2022-12-13T02:05:22.148Z,7.25
2022-12-13T02:08:28.159Z,7.12
2022-12-13T02:11:34.514Z,7.22
2022-12-13T02:14:41.108Z,8.20
2022-12-13T02:18:18.719Z,8.53
2022-12-13T02:21:35.004Z,8.35
2022-12-13T02:25:10.081Z,7.87
2022-12-13T02:28:45.661Z,7.75
2022-12-13T02:32:18.156Z,8.18
2022-12-13T02:35:47.551Z,8.80
2022-12-13T02:39:14.123Z,8.35
2022-12-13T02:42:32.652Z,8.35
2022-12-13T02:45:57.535Z,9.33
2022-12-13T02:49:02.211Z,9.70
2022-12-13T02:52:07.552Z,9.18
2022-12-13T02:55:12.326Z,8.43
2022-12-13T02:58:18.115Z,8.73
2022-12-13T03:01:50.494Z,8.55
2022-12-13T03:06:00.244Z,8.08
2022-12-13T03:09:03.400Z,8.55
2022-12-13T03:13:13.624Z,9.50
2022-12-13T03:19:45.446Z,9.18
2022-12-13T03:22:51.420Z,8.60
2022-12-13T03:25:57.818Z,9.45
2022-12-13T03:29:03.854Z,10.13
2022-12-13T03:32:11.336Z,9.73
2022-12-13T03:35:22.160Z,10.60
2022-12-13T03:38:24.151Z,9.70
2022-12-13T03:41:34.919Z,10.03
2022-12-13T03:44:40.302Z,9.70
2022-12-13T03:47:46.032Z,10.10
2022-12-13T03:50:50.898Z,10.85
2022-12-13T03:53:57.256Z,10.08
2022-12-13T03:57:03.118Z,10.43
2022-12-13T04:00:09.539Z,12.05
2022-12-13T04:03:15.035Z,10.63
2022-12-13T04:06:22.241Z,10.35
2022-12-13T04:09:26.636Z,9.60
2022-12-13T04:12:49.393Z,11.73
2022-12-13T04:15:58.036Z,10.40
2022-12-13T04:19:03.267Z,10.60
2022-12-13T04:22:08.962Z,10.58
2022-12-13T04:25:15.177Z,9.95
2022-12-13T04:28:22.313Z,11.38
2022-12-13T04:31:28.737Z,10.55
2022-12-13T04:34:37.494Z,10.88
2022-12-13T04:37:43.363Z,9.55
2022-12-13T04:40:50.112Z,9.55
2022-12-13T04:43:55.566Z,10.28
2022-12-13T04:47:01.097Z,9.88
2022-12-13T04:50:06.819Z,10.05
2022-12-13T04:53:04.879Z,11.15
2022-12-13T04:56:11.014Z,11.80
2022-12-13T04:59:15.714Z,11.35
2022-12-13T05:02:23.573Z,11.10
2022-12-13T05:05:27.868Z,12.20
2022-12-13T05:08:33.155Z,10.28
2022-12-13T05:11:38.746Z,11.15
2022-12-13T05:14:45.889Z,10.60
2022-12-13T05:17:51.491Z,10.35
2022-12-13T05:20:57.787Z,11.68
2022-12-13T05:24:03.301Z,11.48
2022-12-13T05:27:24.569Z,10.75
2022-12-13T05:30:15.325Z,10.23
2022-12-13T05:33:19.927Z,10.63
2022-12-13T05:36:25.947Z,10.15
2022-12-13T05:39:32.624Z,11.05
2022-12-13T05:42:38.313Z,11.60
2022-12-13T05:45:45.107Z,11.03
2022-12-13T05:48:51.733Z,10.95
2022-12-13T05:51:57.681Z,9.70
2022-12-13T05:55:05.140Z,10.82
2022-12-13T05:58:13.349Z,11.15
2022-12-13T06:01:22.139Z,10.80
2022-12-13T06:07:34.110Z,12.03
2022-12-13T06:10:39.570Z,11.35
2022-12-13T06:13:44.592Z,11.97
2022-12-13T06:16:51.637Z,16.52
2022-12-13T06:19:58.099Z,11.38
2022-12-13T06:23:02.760Z,10.95
2022-12-13T06:26:01.330Z,11.60
2022-12-13T06:29:00.262Z,10.90
2022-12-13T06:32:11.139Z,9.90
2022-12-13T06:38:31.526Z,11.35
2022-12-13T06:41:32.204Z,10.55
2022-12-13T06:44:37.459Z,11.70
2022-12-13T06:47:42.932Z,9.60
2022-12-13T06:50:48.948Z,10.30
2022-12-13T06:53:55.417Z,10.82
2022-12-13T06:57:01.802Z,9.98
2022-12-13T07:00:06.643Z,10.53
2022-12-13T07:03:11.968Z,9.15
2022-12-13T07:06:29.560Z,9.43
2022-12-13T07:09:40.064Z,8.80
2022-12-13T07:12:47.916Z,9.00
2022-12-13T07:15:54.233Z,9.53
2022-12-13T07:19:01.619Z,9.60
2022-12-13T07:22:07.065Z,10.75
2022-12-13T07:25:27.947Z,19.80
2022-12-13T07:28:24.126Z,12.53
2022-12-13T07:31:30.889Z,14.53
2022-12-13T07:34:35.654Z,13.08
2022-12-13T07:37:42.761Z,11.28
2022-12-13T07:40:52.210Z,9.70
2022-12-13T07:43:57.908Z,8.60
2022-12-13T07:47:02.830Z,8.43
2022-12-13T07:50:24.307Z,9.60
2022-12-13T07:53:18.575Z,11.65
2022-12-13T07:56:25.135Z,10.05
2022-12-13T07:59:28.428Z,11.22
2022-12-13T08:02:33.310Z,10.28
2022-12-13T08:05:39.384Z,17.45
2022-12-13T08:08:45.342Z,12.15
2022-12-13T08:11:50.932Z,11.73
2022-12-13T08:14:56.177Z,18.85
2022-12-13T08:18:02.413Z,17.05
2022-12-13T08:21:37.280Z,15.72
2022-12-13T08:24:15.303Z,16.23
2022-12-13T08:27:06.401Z,13.48
2022-12-13T08:30:13.609Z,12.37
2022-12-13T08:33:19.759Z,12.15
2022-12-13T08:36:29.460Z,16.65
2022-12-13T08:39:36.467Z,13.78
2022-12-13T08:42:43.030Z,12.73
2022-12-13T08:45:48.919Z,14.83
2022-12-13T08:48:55.564Z,15.68
2022-12-13T08:52:01.541Z,17.73
2022-12-13T08:55:01.807Z,18.00
2022-12-13T08:58:08.995Z,12.95
2022-12-13T09:01:13.637Z,13.53
2022-12-13T09:04:31.500Z,11.18
2022-12-13T09:07:28.810Z,11.10
2022-12-13T09:10:38.712Z,10.75
2022-12-13T09:13:44.776Z,10.98
2022-12-13T09:16:51.696Z,10.65
2022-12-13T09:19:57.954Z,10.72
2022-12-13T09:23:04.186Z,10.93
2022-12-13T09:26:10.732Z,10.93
2022-12-13T09:29:17.260Z,11.33
2022-12-13T09:32:21.928Z,12.05
2022-12-13T09:35:27.473Z,10.95
2022-12-13T09:38:33.129Z,11.68
2022-12-13T09:41:53.782Z,11.60
2022-12-13T09:45:22.196Z,10.78
2022-12-13T09:48:14.521Z,11.35
2022-12-13T09:51:28.347Z,10.03
2022-12-13T09:54:44.818Z,9.80
2022-12-13T09:57:45.998Z,9.65
2022-12-13T10:00:51.094Z,9.95
2022-12-13T10:03:58.580Z,10.40
2022-12-13T10:07:08.536Z,10.18
2022-12-13T10:10:15.523Z,8.63
2022-12-13T10:13:37.202Z,9.68
2022-12-13T10:16:51.883Z,9.45
2022-12-13T10:19:59.537Z,10.03
2022-12-13T10:26:14.874Z,10.75
2022-12-13T10:29:18.824Z,11.30
2022-12-13T10:32:28.358Z,20.62
2022-12-13T10:35:46.207Z,11.73
2022-12-13T10:38:54.435Z,10.55
2022-12-13T10:41:59.126Z,14.28
2022-12-13T10:45:04.627Z,10.18
2022-12-13T10:48:10.592Z,12.37
2022-12-13T10:51:21.685Z,11.90
2022-12-13T10:54:38.240Z,14.90
2022-12-13T10:57:40.276Z,65.45
2022-12-13T11:00:56.007Z,55.80
2022-12-13T11:04:25.411Z,16.15
2022-12-13T11:07:45.744Z,11.48
2022-12-13T11:10:52.768Z,12.80
2022-12-13T11:15:09.809Z,14.33
2022-12-13T11:18:34.581Z,14.03
2022-12-13T11:21:45.096Z,17.50
2022-12-13T11:24:54.494Z,26.10
2022-12-13T11:28:31.930Z,17.00
2022-12-13T11:31:59.610Z,17.60
2022-12-13T11:35:05.673Z,15.83
2022-12-13T11:38:07.964Z,10.83
2022-12-13T11:41:32.371Z,14.85
2022-12-13T11:45:22.785Z,14.93
2022-12-13T11:48:45.538Z,17.15
2022-12-13T11:52:06.159Z,16.05
2022-12-13T11:55:32.322Z,12.80
2022-12-13T11:59:24.066Z,14.15
2022-12-13T12:02:44.329Z,14.93
2022-12-13T12:05:56.230Z,12.53
2022-12-13T12:09:08.300Z,9.60
2022-12-13T12:12:22.089Z,8.13
2022-12-13T12:15:41.483Z,9.15
2022-12-13T12:18:42.159Z,8.65
2022-12-13T12:22:15.387Z,8.65
2022-12-13T12:25:42.506Z,9.10
2022-12-13T12:29:19.437Z,9.93
2022-12-13T12:32:48.611Z,10.23
2022-12-13T12:36:20.111Z,10.55
2022-12-13T12:39:40.510Z,14.05
2022-12-13T12:43:18.758Z,15.23
2022-12-13T12:47:08.793Z,15.32
2022-12-13T12:50:11.441Z,12.28
2022-12-13T12:53:54.690Z,8.90
2022-12-13T12:57:39.570Z,12.15
2022-12-13T13:00:55.332Z,12.90
2022-12-13T13:04:02.321Z,11.48
2022-12-13T13:07:31.251Z,9.78
2022-12-13T13:10:32.741Z,12.05
2022-12-13T13:14:01.642Z,9.50
2022-12-13T13:17:08.900Z,9.68
2022-12-13T13:20:39.320Z,13.05
2022-12-13T13:23:46.764Z,11.50
2022-12-13T13:27:01.456Z,10.40
2022-12-13T13:30:07.133Z,7.92
2022-12-13T13:33:12.485Z,10.55
2022-12-13T13:36:29.001Z,8.03
2022-12-13T13:39:36.760Z,8.23
2022-12-13T13:42:45.663Z,11.63
2022-12-13T13:46:14.584Z,12.15
2022-12-13T13:49:21.908Z,11.88
2022-12-13T13:52:36.727Z,9.03
2022-12-13T13:56:14.116Z,10.20
2022-12-13T13:59:50.910Z,11.25
2022-12-13T14:03:34.840Z,11.40
2022-12-13T14:07:27.011Z,14.03
2022-12-13T14:10:58.383Z,14.03
2022-12-13T14:14:52.120Z,12.45
2022-12-13T14:18:49.064Z,10.13
2022-12-13T14:22:24.805Z,7.05
2022-12-13T14:25:59.092Z,5.67
2022-12-13T14:29:11.151Z,4.42
2022-12-13T14:32:26.581Z,3.33
2022-12-13T14:35:45.177Z,3.47
2022-12-13T14:38:51.194Z,3.55
2022-12-13T14:42:03.230Z,5.28
2022-12-13T14:45:08.341Z,5.30
2022-12-13T14:48:28.096Z,6.45
2022-12-13T14:51:47.218Z,6.72
2022-12-13T14:55:15.850Z,7.30
2022-12-13T14:58:32.570Z,6.50
2022-12-13T15:01:53.586Z,6.45
2022-12-13T15:05:00.019Z,6.03
2022-12-13T15:08:10.785Z,6.65
2022-12-13T15:11:14.243Z,6.20
2022-12-13T15:14:21.182Z,6.35
2022-12-13T15:17:43.110Z,6.78
2022-12-13T15:20:54.456Z,5.78
2022-12-13T15:24:02.676Z,6.80
2022-12-13T15:27:11.500Z,5.58
2022-12-13T15:30:17.646Z,6.00
2022-12-13T15:33:44.035Z,6.15
2022-12-13T15:36:44.454Z,6.37
2022-12-13T15:39:54.087Z,6.83
2022-12-13T15:43:00.886Z,5.72
2022-12-13T15:46:06.963Z,6.03
2022-12-13T15:49:14.479Z,5.08
2022-12-13T15:52:22.613Z,5.20
2022-12-13T15:55:33.026Z,3.87
2022-12-13T15:58:48.010Z,3.90
2022-12-13T19:15:55.148Z,8.68
2022-12-13T19:19:01.445Z,9.05
2022-12-13T19:22:07.260Z,8.68
2022-12-13T19:25:12.373Z,8.40
2022-12-13T19:28:21.493Z,9.23
2022-12-13T19:31:32.025Z,8.17
2022-12-13T19:34:37.726Z,8.58
2022-12-13T19:37:44.486Z,8.78
2022-12-13T19:40:49.406Z,8.48
2022-12-13T19:43:59.810Z,10.35
2022-12-13T19:47:06.847Z,9.83
2022-12-13T19:50:13.446Z,9.75
2022-12-13T19:53:18.383Z,10.35
2022-12-13T19:56:25.921Z,11.38
2022-12-13T19:59:31.223Z,10.60
2022-12-13T20:02:36.527Z,11.33
2022-12-13T20:05:36.220Z,11.03
2022-12-13T20:08:41.848Z,10.75
2022-12-13T20:11:48.849Z,10.53
2022-12-13T20:14:55.759Z,11.55
2022-12-13T20:18:02.535Z,11.93
2022-12-13T20:21:21.793Z,11.22
2022-12-13T20:24:28.005Z,12.53
2022-12-13T20:27:33.726Z,12.60
2022-12-13T20:30:40.453Z,11.60
2022-12-13T20:33:45.564Z,13.70
2022-12-13T20:36:51.950Z,14.00
2022-12-13T20:39:58.185Z,13.03
2022-12-13T20:43:04.745Z,13.05
2022-12-13T20:46:21.269Z,13.53
2022-12-13T20:49:28.071Z,14.98
2022-12-13T20:52:32.904Z,14.53
2022-12-13T20:55:39.047Z,14.38
2022-12-13T20:58:44.589Z,14.25
2022-12-13T21:01:51.847Z,14.68
2022-12-13T21:04:57.271Z,15.08
2022-12-13T21:08:19.773Z,15.78
2022-12-13T21:11:27.630Z,14.93
2022-12-13T21:14:40.132Z,16.23
2022-12-13T21:17:45.516Z,15.72
2022-12-13T21:20:45.630Z,15.80
2022-12-13T21:23:31.120Z,15.32
2022-12-13T21:26:28.701Z,15.23
2022-12-13T21:29:21.471Z,15.15
2022-12-13T21:32:27.147Z,14.55
2022-12-13T21:35:32.105Z,12.88
2022-12-13T21:38:37.577Z,12.07
2022-12-13T21:41:43.925Z,10.78
2022-12-13T21:44:51.501Z,11.20
2022-12-13T21:47:58.232Z,11.57
2022-12-13T21:51:06.299Z,11.68
2022-12-13T21:54:11.692Z,11.15
2022-12-13T21:57:29.109Z,8.60
2022-12-13T22:00:24.014Z,11.15
2022-12-13T22:06:33.049Z,11.48
2022-12-13T22:09:38.674Z,11.22
2022-12-13T22:12:49.452Z,10.70
2022-12-13T22:15:54.809Z,10.68
2022-12-13T22:18:59.971Z,11.63
2022-12-13T22:22:04.878Z,11.53
2022-12-13T22:25:11.195Z,13.15
2022-12-13T22:28:17.947Z,11.15
2022-12-13T22:31:28.136Z,11.88
2022-12-13T22:34:31.587Z,13.05
2022-12-13T22:37:37.557Z,14.25
2022-12-13T22:40:43.225Z,13.43
2022-12-13T22:43:52.558Z,15.45
2022-12-13T22:46:58.588Z,14.28
2022-12-13T22:50:04.582Z,14.90
2022-12-13T22:53:10.438Z,15.88
2022-12-13T22:56:22.855Z,13.25
2022-12-13T22:59:21.373Z,13.68
2022-12-13T23:02:27.918Z,11.85
2022-12-13T23:05:34.743Z,14.90
2022-12-13T23:08:43.559Z,13.20
2022-12-13T23:12:06.634Z,14.10
2022-12-13T23:15:11.725Z,13.45
2022-12-13T23:18:16.877Z,14.03
2022-12-13T23:21:22.500Z,13.35
2022-12-13T23:24:28.884Z,11.40
2022-12-13T23:27:34.542Z,12.78
2022-12-13T23:30:39.381Z,12.50
2022-12-13T23:33:44.028Z,12.98
2022-12-13T23:36:48.969Z,12.03
2022-12-13T23:39:54.332Z,12.37
2022-12-13T23:43:00.140Z,12.15
2022-12-13T23:46:05.139Z,12.37
2022-12-13T23:49:12.080Z,12.33
2022-12-13T23:52:17.452Z,13.03
2022-12-13T23:55:22.814Z,13.15
2022-12-13T23:58:28.176Z,11.73
